»·PEaware :: N928MA KSBP-KSBP

N928MA :: KSBP-KSBP

FLIGHT INFORMATION

Flight Status: Arrived
Operator: Privately registered:
United States
More flights under this callsign
Pilot: Anonymous 30200 (30200)
Aircraft: CESSNA 172 SKYHAWK
(C172)
More flights by this aircraft type
Origin: KSBP San Luis Co Regl
United States
Destination: KSBP San Luis Co Regl
United States
More flights between these airports :: More routes between these airports
Route: KSBP KSBP
File this flight plan on PilotEdge
Remarks:
Altitude:
(Current/Filed)
1,200ft
Speed:
(Current/Filed)
210kts
Departed: 05-Jul-20 06:58 PM
Arrived: 05-Jul-20 07:16 PM
Distance/Time
Traveled:
2nm/0:18
Distance/Time
To Go:
Arrived

Flight Plot

Page will automatically refresh every two minutes.


Map Options




Map Legend


Flown Route
Filed Route
Departure Airport
Arrival Airport
Navaid (VOR, NDB)
Fix

Horizontal Profiles

Position Reports

Time Latitude Longitude Heading Altitude Ground
Speed
05-Jul-20 18:34 35.238802 -120.639177 270 216ft 0kts
05-Jul-20 18:35 35.238802 -120.639177 270 216ft 0kts
05-Jul-20 18:36 35.238802 -120.639177 270 216ft 0kts
05-Jul-20 18:37 35.238802 -120.639177 270 216ft 0kts
05-Jul-20 18:38 35.238802 -120.639177 270 216ft 0kts
05-Jul-20 18:39 35.238802 -120.639177 270 216ft 0kts
05-Jul-20 18:40 35.238802 -120.639177 270 216ft 0kts
05-Jul-20 18:41 35.238802 -120.639177 270 216ft 0kts
05-Jul-20 18:42 35.238802 -120.639177 270 216ft 0kts
05-Jul-20 18:43 35.238802 -120.639177 270 216ft 0kts
05-Jul-20 18:44 35.238802 -120.639177 270 216ft 0kts
05-Jul-20 18:45 35.238802 -120.639177 270 216ft 0kts
05-Jul-20 18:46 35.238802 -120.639177 270 216ft 0kts
05-Jul-20 18:47 35.238802 -120.639177 270 216ft 0kts
05-Jul-20 18:48 35.238802 -120.639177 270 216ft 0kts
05-Jul-20 18:49 35.237541 -120.639375 135 216ft 13kts
05-Jul-20 18:50 35.234368 -120.633880 125 216ft 20kts
05-Jul-20 18:51 35.233198 -120.631949 297 216ft 0kts
05-Jul-20 18:52 35.233198 -120.631949 296 216ft 0kts
05-Jul-20 18:53 35.233198 -120.631949 297 216ft 0kts
05-Jul-20 18:54 35.233198 -120.631949 297 216ft 0kts
05-Jul-20 18:55 35.233198 -120.631949 297 216ft 0kts
05-Jul-20 18:56 35.233228 -120.632112 264 216ft 4kts
05-Jul-20 18:57 35.236449 -120.639589 304 438ft 62kts
05-Jul-20 18:58 35.235258 -120.657579 216 1232ft 93kts
05-Jul-20 18:59 35.214244 -120.635652 138 1424ft 100kts
05-Jul-20 19:00 35.215286 -120.614706 16 983ft 67kts
05-Jul-20 19:01 35.226926 -120.622635 303 528ft 44kts
05-Jul-20 19:02 35.233958 -120.635064 303 233ft 42kts
05-Jul-20 19:03 35.243404 -120.651027 301 936ft 63kts
05-Jul-20 19:04 35.226953 -120.653679 130 1200ft 107kts
05-Jul-20 19:05 35.207121 -120.626922 134 1308ft 107kts
05-Jul-20 19:06 35.190175 -120.599050 50 1177ft 100kts
05-Jul-20 19:07 35.211353 -120.594893 302 1065ft 74kts
05-Jul-20 19:08 35.221706 -120.613836 304 799ft 61kts
05-Jul-20 19:09 35.231170 -120.630178 303 347ft 51kts
05-Jul-20 19:10 35.239670 -120.645198 301 488ft 72kts
05-Jul-20 19:11 35.237022 -120.665164 208 1297ft 95kts
05-Jul-20 19:12 35.215961 -120.640636 132 1266ft 102kts
05-Jul-20 19:13 35.217888 -120.621297 16 786ft 63kts
05-Jul-20 19:14 35.229888 -120.628049 305 378ft 49kts
05-Jul-20 19:15 35.236055 -120.638732 303 216ft 31kts
05-Jul-20 19:16 35.237612 -120.639888 13 216ft 7kts
05-Jul-20 19:17 35.238778 -120.639584 220 216ft 0kts
05-Jul-20 19:18 35.238778 -120.639584 220 216ft 0kts
05-Jul-20 19:19 35.238778 -120.639584 220 216ft 0kts
05-Jul-20 19:20 35.238778 -120.639584 220 216ft 0kts
05-Jul-20 19:21 35.238778 -120.639584 220 216ft 0kts
05-Jul-20 19:22 35.238778 -120.639584 220 216ft 0kts
05-Jul-20 19:23 35.238588 -120.639701 193 216ft 6kts
05-Jul-20 19:24 35.236043 -120.636816 124 216ft 16kts
05-Jul-20 19:25 35.233383 -120.632111 124 216ft 11kts
05-Jul-20 19:26 35.233118 -120.632002 292 216ft 0kts
05-Jul-20 19:27 35.233118 -120.632002 292 216ft 0kts
05-Jul-20 19:28 35.234040 -120.635204 303 216ft 57kts
05-Jul-20 19:29 35.246909 -120.649605 323 1225ft 63kts
05-Jul-20 19:30 35.260938 -120.663137 314 2174ft 65kts

Navigation Log

Ident Type
Flight plan parsing failed, navigation log unavailable